createdAt,value
2023-02-17T00:00:45.560Z,10.5
2023-02-17T00:01:45.595Z,10.4286
2023-02-17T00:02:45.659Z,10.4286
2023-02-17T00:03:45.696Z,10.4286
2023-02-17T00:04:45.695Z,10.4286
2023-02-17T00:05:45.732Z,10.4286
2023-02-17T00:06:45.756Z,10.4286
2023-02-17T00:07:45.781Z,10.4286
2023-02-17T00:08:45.809Z,10.4286
2023-02-17T00:09:45.854Z,10.4286
2023-02-17T00:10:45.885Z,10.4286
2023-02-17T00:11:45.924Z,10.4286
2023-02-17T00:12:45.953Z,10.3571
2023-02-17T00:13:45.988Z,10.4286
2023-02-17T00:14:46.022Z,10.3571
2023-02-17T00:15:46.088Z,10.3571
2023-02-17T00:16:46.081Z,10.3571
2023-02-17T00:17:46.140Z,10.3571
2023-02-17T00:18:46.153Z,10.3571
2023-02-17T00:19:46.188Z,10.3571
2023-02-17T00:20:46.231Z,10.3571
2023-02-17T00:21:46.262Z,10.3571
2023-02-17T00:22:46.296Z,10.3571
2023-02-17T00:23:46.352Z,10.3571
2023-02-17T00:24:46.362Z,10.3571
2023-02-17T00:25:46.403Z,10.3571
2023-02-17T00:26:46.440Z,10.3571
2023-02-17T00:27:46.482Z,10.3571
2023-02-17T00:28:46.522Z,10.3571
2023-02-17T00:29:46.548Z,10.2857
2023-02-17T00:30:46.594Z,10.2857
2023-02-17T00:31:46.721Z,10.2857
2023-02-17T00:32:46.653Z,10.2857
2023-02-17T00:33:46.684Z,10.2857
2023-02-17T00:34:46.751Z,10.2857
2023-02-17T00:35:46.765Z,10.2857
2023-02-17T00:36:46.798Z,10.2857
2023-02-17T00:37:46.830Z,10.2857
2023-02-17T00:38:46.879Z,10.2857
2023-02-17T00:39:46.900Z,10.2857
2023-02-17T00:40:46.938Z,10.2857
2023-02-17T00:41:46.973Z,10.2857
2023-02-17T00:42:47.007Z,10.2857
2023-02-17T00:43:47.053Z,10.2857
2023-02-17T00:44:47.080Z,10.2857
2023-02-17T00:45:47.117Z,10.2857
2023-02-17T00:46:47.223Z,10.2857
2023-02-17T00:47:47.196Z,10.2857
2023-02-17T00:48:47.312Z,10.2857
2023-02-17T00:49:47.271Z,10.2857
2023-02-17T00:50:47.298Z,10.2857
2023-02-17T00:51:47.339Z,10.2857
2023-02-17T00:52:47.377Z,10.2857
2023-02-17T00:53:47.416Z,10.2857
2023-02-17T00:54:47.473Z,10.2857
2023-02-17T00:55:47.479Z,10.2857
2023-02-17T00:56:47.510Z,10.2857
2023-02-17T00:57:47.557Z,10.2857
2023-02-17T00:58:47.590Z,10.2143
2023-02-17T00:59:47.624Z,10.2857
2023-02-17T01:00:47.662Z,10.2143
2023-02-17T01:01:47.724Z,10.2143
2023-02-17T01:02:47.712Z,10.2857
2023-02-17T01:03:47.752Z,10.2143
2023-02-17T01:04:47.852Z,10.2143
2023-02-17T01:05:47.829Z,10.2857
2023-02-17T01:06:47.862Z,10.2143
2023-02-17T01:07:47.877Z,10.2857
2023-02-17T01:08:47.917Z,10.2857
2023-02-17T01:09:47.957Z,10.2857
2023-02-17T01:10:47.994Z,10.2857
2023-02-17T01:11:48.028Z,10.2857
2023-02-17T01:12:48.055Z,10.2857
2023-02-17T01:13:48.090Z,10.2857
2023-02-17T01:14:48.134Z,10.2857
2023-02-17T01:15:48.197Z,10.2857
2023-02-17T01:16:48.208Z,10.2143
2023-02-17T01:17:48.235Z,10.2143
2023-02-17T01:18:48.270Z,10.2857
2023-02-17T01:19:48.302Z,10.2857
2023-02-17T01:20:48.334Z,10.2857
2023-02-17T01:21:48.387Z,10.2857
2023-02-17T01:22:48.413Z,10.2857
2023-02-17T01:23:48.454Z,10.2857
2023-02-17T01:24:48.489Z,10.2857
2023-02-17T01:25:48.523Z,10.2857
2023-02-17T01:26:48.565Z,10.2857
2023-02-17T01:27:48.615Z,10.2857
2023-02-17T01:28:48.636Z,10.2857
2023-02-17T01:29:48.675Z,10.2857
2023-02-17T01:30:48.769Z,10.2857
2023-02-17T01:31:48.793Z,10.2857
2023-02-17T01:32:48.789Z,10.2857
2023-02-17T01:33:48.835Z,10.2857
2023-02-17T01:34:48.865Z,10.2857
2023-02-17T01:35:48.907Z,10.2857
2023-02-17T01:36:48.945Z,10.2857
2023-02-17T01:37:48.968Z,10.2857
2023-02-17T01:38:49.004Z,10.2857
2023-02-17T01:39:49.050Z,10.2857
2023-02-17T01:40:49.084Z,10.2857
2023-02-17T01:41:49.114Z,10.2857
2023-02-17T01:42:49.153Z,10.2857
2023-02-17T01:43:49.190Z,10.2857
2023-02-17T01:44:49.226Z,10.2857
2023-02-17T01:45:49.259Z,10.2857
2023-02-17T01:46:49.349Z,10.2857
2023-02-17T01:47:49.334Z,10.2857
2023-02-17T01:48:49.374Z,10.2857
2023-02-17T01:49:49.395Z,10.3571
2023-02-17T01:50:49.434Z,10.2857
2023-02-17T01:51:49.473Z,10.3571
2023-02-17T01:52:49.516Z,10.3571
2023-02-17T01:53:49.533Z,10.2857
2023-02-17T01:54:49.571Z,10.2857
2023-02-17T01:55:49.601Z,10.2857
2023-02-17T01:56:49.645Z,10.2857
2023-02-17T01:57:49.668Z,10.2857
2023-02-17T01:58:49.698Z,10.2857
2023-02-17T01:59:49.735Z,10.2857
2023-02-17T02:00:49.771Z,10.2857
2023-02-17T02:01:49.919Z,10.2857
2023-02-17T02:02:50.087Z,10.2857
2023-02-17T02:03:49.878Z,10.2857
2023-02-17T02:04:49.912Z,10.2857
2023-02-17T02:05:49.946Z,10.2857
2023-02-17T02:06:49.983Z,10.2857
2023-02-17T02:07:50.026Z,10.2857
2023-02-17T02:08:50.056Z,10.2857
2023-02-17T02:09:50.091Z,10.2857
2023-02-17T02:10:50.130Z,10.2143
2023-02-17T02:11:50.168Z,10.2143
2023-02-17T02:12:50.202Z,10.2143
2023-02-17T02:13:50.240Z,10.2143
2023-02-17T02:14:50.272Z,10.2143
2023-02-17T02:15:50.323Z,10.2143
2023-02-17T02:16:50.347Z,10.1429
2023-02-17T02:17:50.385Z,10.1429
2023-02-17T02:18:50.406Z,10.1429
2023-02-17T02:19:50.451Z,10.1429
2023-02-17T02:20:50.485Z,10.1429
2023-02-17T02:21:50.607Z,10.1429
2023-02-17T02:22:50.552Z,10.1429
2023-02-17T02:23:50.568Z,10.1429
2023-02-17T02:24:50.615Z,10.1429
2023-02-17T02:25:50.650Z,10.1429
2023-02-17T02:26:50.683Z,10.1429
2023-02-17T02:27:50.709Z,10.1429
2023-02-17T02:28:50.750Z,10.1429
2023-02-17T02:29:50.787Z,10.1429
2023-02-17T02:30:50.850Z,10.1429
2023-02-17T02:31:50.886Z,10.1429
2023-02-17T02:32:50.879Z,10.1429
2023-02-17T02:33:50.912Z,10.1429
2023-02-17T02:34:50.951Z,10.1429
2023-02-17T02:35:50.987Z,10.1429
2023-02-17T02:36:51.008Z,10.1429
2023-02-17T02:37:51.043Z,10.1429
2023-02-17T02:38:51.092Z,10.1429
2023-02-17T02:39:51.121Z,10.1429
2023-02-17T02:40:51.171Z,10.1429
2023-02-17T02:41:51.195Z,10.1429
2023-02-17T02:42:51.228Z,10.0714
2023-02-17T02:43:51.250Z,10.0714
2023-02-17T02:44:51.293Z,10.0714
2023-02-17T02:45:51.354Z,10.0714
2023-02-17T02:46:51.460Z,10.0714
2023-02-17T02:47:51.400Z,10.0714
2023-02-17T02:48:51.431Z,10.0714
2023-02-17T02:49:51.460Z,10
2023-02-17T02:50:51.490Z,10
2023-02-17T02:51:51.539Z,10
2023-02-17T02:52:51.562Z,10
2023-02-17T02:53:51.603Z,10
2023-02-17T02:54:51.630Z,10
2023-02-17T02:55:51.663Z,10
2023-02-17T02:56:51.704Z,10
2023-02-17T02:57:51.741Z,10
2023-02-17T02:58:51.764Z,10
2023-02-17T02:59:51.798Z,9.92857
2023-02-17T03:00:51.851Z,9.92857
2023-02-17T03:01:51.870Z,9.92857
2023-02-17T03:02:51.928Z,9.92857
2023-02-17T03:03:51.967Z,9.92857
2023-02-17T03:04:51.972Z,9.92857
2023-02-17T03:05:52.017Z,9.92857
2023-02-17T03:06:52.045Z,9.92857
2023-02-17T03:07:52.088Z,9.92857
2023-02-17T03:08:52.118Z,9.85714
2023-02-17T03:09:52.160Z,9.85714
2023-02-17T03:10:52.210Z,9.85714
2023-02-17T03:11:52.217Z,9.85714
2023-02-17T03:12:52.255Z,9.85714
2023-02-17T03:13:52.294Z,9.85714
2023-02-17T03:14:52.338Z,9.78571
2023-02-17T03:15:52.368Z,9.78571
2023-02-17T03:16:52.398Z,9.78571
2023-02-17T03:17:52.432Z,9.78571
2023-02-17T03:18:52.465Z,9.78571
2023-02-17T03:19:52.511Z,9.78571
2023-02-17T03:20:52.543Z,9.78571
2023-02-17T03:21:52.574Z,9.78571
2023-02-17T03:22:52.617Z,9.78571
2023-02-17T03:23:52.652Z,9.78571
2023-02-17T03:24:52.681Z,9.78571
2023-02-17T03:25:52.714Z,9.78571
2023-02-17T03:26:52.748Z,9.78571
2023-02-17T03:27:52.789Z,9.78571
2023-02-17T03:28:52.826Z,9.78571
2023-02-17T03:29:52.853Z,9.78571
2023-02-17T03:30:52.908Z,9.78571
2023-02-17T03:31:53.004Z,9.78571
2023-02-17T03:32:52.972Z,9.78571
2023-02-17T03:33:53.010Z,9.78571
2023-02-17T03:34:53.038Z,9.78571
2023-02-17T03:35:53.085Z,9.78571
2023-02-17T03:36:53.100Z,9.85714
2023-02-17T03:37:53.143Z,9.85714
2023-02-17T03:38:53.182Z,9.85714
2023-02-17T03:39:53.206Z,9.85714
2023-02-17T03:40:53.252Z,9.85714
2023-02-17T03:41:53.282Z,9.85714
2023-02-17T03:42:53.319Z,9.85714
2023-02-17T03:43:53.353Z,9.85714
2023-02-17T03:44:53.392Z,9.85714
2023-02-17T03:45:53.444Z,9.85714
2023-02-17T03:46:53.445Z,9.85714
2023-02-17T03:47:53.478Z,9.85714
2023-02-17T03:48:53.518Z,9.85714
2023-02-17T03:49:53.557Z,9.85714
2023-02-17T03:50:53.609Z,9.85714
2023-02-17T03:51:53.618Z,9.85714
2023-02-17T03:52:53.663Z,9.85714
2023-02-17T03:53:53.700Z,9.85714
2023-02-17T03:54:53.720Z,9.85714
2023-02-17T03:55:53.786Z,9.85714
2023-02-17T03:56:53.788Z,9.85714
2023-02-17T03:57:53.822Z,9.85714
2023-02-17T03:58:53.870Z,9.85714
2023-02-17T03:59:53.893Z,9.85714
2023-02-17T04:00:53.934Z,9.85714
2023-02-17T04:01:53.971Z,9.85714
2023-02-17T04:02:54.009Z,9.85714
2023-02-17T04:03:54.126Z,9.85714
2023-02-17T04:04:54.078Z,9.85714
2023-02-17T04:05:54.118Z,9.78571
2023-02-17T04:06:54.152Z,9.78571
2023-02-17T04:07:54.195Z,9.78571
2023-02-17T04:08:54.215Z,9.78571
2023-02-17T04:09:54.244Z,9.78571
2023-02-17T04:10:54.296Z,9.78571
2023-02-17T04:11:54.329Z,9.78571
2023-02-17T04:12:54.371Z,9.78571
2023-02-17T04:13:54.395Z,9.78571
2023-02-17T04:14:54.436Z,9.78571
2023-02-17T04:15:54.569Z,9.78571
2023-02-17T04:16:54.514Z,9.78571
2023-02-17T04:17:54.545Z,9.78571
2023-02-17T04:18:54.584Z,9.85714
2023-02-17T04:19:54.608Z,9.78571
2023-02-17T04:20:54.650Z,9.78571
2023-02-17T04:21:54.664Z,9.78571
2023-02-17T04:22:54.696Z,9.78571
2023-02-17T04:23:54.733Z,9.78571
2023-02-17T04:24:54.774Z,9.78571
2023-02-17T04:25:54.816Z,9.78571
2023-02-17T04:26:54.840Z,9.78571
2023-02-17T04:27:54.879Z,9.78571
2023-02-17T04:28:54.907Z,9.85714
2023-02-17T04:29:54.964Z,9.85714
2023-02-17T04:30:55.060Z,9.85714
2023-02-17T04:31:55.104Z,9.85714
2023-02-17T04:32:55.036Z,9.85714
2023-02-17T04:33:55.075Z,9.85714
2023-02-17T04:34:55.113Z,9.85714
2023-02-17T04:35:55.142Z,9.85714
2023-02-17T04:36:55.177Z,9.85714
2023-02-17T04:37:55.215Z,9.85714
2023-02-17T04:38:55.250Z,9.85714
2023-02-17T04:39:55.299Z,9.85714
2023-02-17T04:40:55.318Z,9.92857
2023-02-17T04:41:55.344Z,9.85714
2023-02-17T04:42:55.388Z,9.92857
2023-02-17T04:43:55.406Z,9.92857
2023-02-17T04:44:55.448Z,9.92857
2023-02-17T04:45:55.550Z,9.92857
2023-02-17T04:46:55.512Z,9.92857
2023-02-17T04:47:55.545Z,9.92857
2023-02-17T04:48:55.578Z,9.92857
2023-02-17T04:49:55.632Z,9.92857
2023-02-17T04:50:55.651Z,9.92857
2023-02-17T04:51:55.681Z,9.92857
2023-02-17T04:52:55.714Z,9.92857
2023-02-17T04:53:55.753Z,9.92857
2023-02-17T04:54:55.791Z,9.92857
2023-02-17T04:55:55.829Z,9.92857
2023-02-17T04:56:55.857Z,9.92857
2023-02-17T04:57:55.886Z,9.92857
2023-02-17T04:58:55.932Z,9.92857
2023-02-17T04:59:55.970Z,9.92857
2023-02-17T05:00:55.999Z,9.92857
2023-02-17T05:01:56.034Z,9.92857
2023-02-17T05:02:56.067Z,9.92857
2023-02-17T05:03:56.124Z,9.92857
2023-02-17T05:04:56.213Z,10
2023-02-17T05:05:56.167Z,10
2023-02-17T05:06:56.199Z,9.92857
2023-02-17T05:07:56.236Z,10
2023-02-17T05:08:56.279Z,10
2023-02-17T05:09:56.303Z,10
2023-02-17T05:10:56.338Z,10
2023-02-17T05:11:56.368Z,9.92857
2023-02-17T05:12:56.413Z,9.92857
2023-02-17T05:13:56.446Z,9.92857
2023-02-17T05:14:56.477Z,9.92857
2023-02-17T05:15:56.511Z,9.92857
2023-02-17T05:16:56.542Z,9.92857
2023-02-17T05:17:56.571Z,9.92857
2023-02-17T05:18:56.614Z,9.92857
2023-02-17T05:19:56.649Z,9.92857
2023-02-17T05:20:56.695Z,9.92857
2023-02-17T05:21:56.722Z,9.92857
2023-02-17T05:22:56.765Z,9.92857
2023-02-17T05:23:56.789Z,9.92857
2023-02-17T05:24:56.825Z,9.92857
2023-02-17T05:25:56.877Z,9.92857
2023-02-17T05:26:56.899Z,10
2023-02-17T05:27:56.925Z,10
2023-02-17T05:28:56.972Z,10
2023-02-17T05:29:57.057Z,10
2023-02-17T05:30:57.094Z,10
2023-02-17T05:31:57.119Z,10
2023-02-17T05:32:57.110Z,10
2023-02-17T05:33:57.147Z,10
2023-02-17T05:34:57.177Z,10
2023-02-17T05:35:57.201Z,10.0714
2023-02-17T05:36:57.241Z,10.0714
2023-02-17T05:37:57.277Z,10.0714
2023-02-17T05:38:57.309Z,10.0714
2023-02-17T05:39:57.329Z,10.0714
2023-02-17T05:40:57.375Z,10.0714
2023-02-17T05:41:57.418Z,10.0714
2023-02-17T05:42:57.446Z,10.1429
2023-02-17T05:43:57.472Z,10.1429
2023-02-17T05:44:57.497Z,10.1429
2023-02-17T05:45:57.540Z,10.1429
2023-02-17T05:46:57.588Z,10.1429
2023-02-17T05:47:57.611Z,10.1429
2023-02-17T05:48:57.647Z,10.1429
2023-02-17T05:49:57.679Z,10.1429
2023-02-17T05:50:57.709Z,10.1429
2023-02-17T05:51:57.735Z,10.1429
2023-02-17T05:52:57.774Z,10.1429
2023-02-17T05:53:57.814Z,10.2143
2023-02-17T05:54:57.850Z,10.2143
2023-02-17T05:55:57.891Z,10.2143
2023-02-17T05:56:57.926Z,10.2143
2023-02-17T05:57:57.964Z,10.2143
2023-02-17T05:58:58.000Z,10.2143
2023-02-17T05:59:58.033Z,10.2143
2023-02-17T06:00:58.059Z,10.2143
2023-02-17T06:01:58.101Z,10.2143
2023-02-17T06:02:58.167Z,10.2857
2023-02-17T06:03:58.177Z,10.2857
2023-02-17T06:04:58.403Z,10.2857
2023-02-17T06:05:58.259Z,10.2857
2023-02-17T06:06:58.298Z,10.2857
2023-02-17T06:07:58.350Z,10.2857
2023-02-17T06:08:58.369Z,10.2857
2023-02-17T06:09:58.404Z,10.3571
2023-02-17T06:10:58.430Z,10.3571
2023-02-17T06:11:58.481Z,10.3571
2023-02-17T06:12:58.513Z,10.3571
2023-02-17T06:13:58.551Z,10.3571
2023-02-17T06:14:58.566Z,10.3571
2023-02-17T06:15:58.692Z,10.3571
2023-02-17T06:17:00.946Z,10.3571
2023-02-17T06:17:58.674Z,10.3571
2023-02-17T06:18:58.709Z,10.3571
2023-02-17T06:19:58.750Z,10.4286
2023-02-17T06:20:58.792Z,10.4286
2023-02-17T06:21:58.824Z,10.4286
2023-02-17T06:22:58.851Z,10.4286
2023-02-17T06:23:58.883Z,10.4286
2023-02-17T06:24:58.930Z,10.4286
2023-02-17T06:25:58.964Z,10.4286
2023-02-17T06:26:59.007Z,10.4286
2023-02-17T06:27:59.040Z,10.4286
2023-02-17T06:28:59.076Z,10.4286
2023-02-17T06:29:59.139Z,10.4286
2023-02-17T06:30:59.188Z,10.4286
2023-02-17T06:31:59.226Z,10.5
2023-02-17T06:32:59.231Z,10.4286
2023-02-17T06:33:59.265Z,10.5
2023-02-17T06:34:59.296Z,10.5
2023-02-17T06:35:59.347Z,10.5
2023-02-17T06:36:59.371Z,10.5
2023-02-17T06:37:59.430Z,10.5
2023-02-17T06:38:59.435Z,10.5
2023-02-17T06:39:59.470Z,10.5
2023-02-17T06:40:59.505Z,10.5
2023-02-17T06:41:59.543Z,10.5714
2023-02-17T06:42:59.568Z,10.5714
2023-02-17T06:43:59.614Z,10.5714
2023-02-17T06:44:59.639Z,10.5714
2023-02-17T06:45:59.737Z,10.5714
2023-02-17T06:46:59.714Z,10.5714
2023-02-17T06:47:59.750Z,10.5714
2023-02-17T06:48:59.765Z,10.6429
2023-02-17T06:49:59.811Z,10.6429
2023-02-17T06:50:59.845Z,10.6429
2023-02-17T06:51:59.872Z,10.6429
2023-02-17T06:52:59.909Z,10.6429
2023-02-17T06:53:59.939Z,10.6429
2023-02-17T06:54:59.967Z,10.7143
2023-02-17T06:56:00.006Z,10.7143
2023-02-17T06:57:00.035Z,10.7143
2023-02-17T06:58:00.096Z,10.7143
2023-02-17T06:59:00.115Z,10.7857
2023-02-17T07:00:00.137Z,10.7857
2023-02-17T07:01:00.150Z,10.7857
2023-02-17T07:02:02.263Z,10.7857
2023-02-17T07:03:00.429Z,10.7857
2023-02-17T07:04:00.267Z,10.7857
2023-02-17T07:05:00.272Z,10.7857
2023-02-17T07:06:00.306Z,10.7857
2023-02-17T07:07:00.335Z,10.7857
2023-02-17T07:08:00.401Z,10.7857
2023-02-17T07:09:00.391Z,10.7857
2023-02-17T07:10:00.441Z,10.7857
2023-02-17T07:11:00.462Z,10.7857
2023-02-17T07:12:00.504Z,10.7857
2023-02-17T07:13:00.601Z,10.7857
2023-02-17T07:14:00.614Z,10.7857
2023-02-17T07:15:00.633Z,10.7857
2023-02-17T07:16:00.779Z,10.7857
2023-02-17T07:17:00.688Z,10.7857
2023-02-17T07:18:00.738Z,10.7857
2023-02-17T07:19:00.746Z,10.8571
2023-02-17T07:20:00.798Z,10.8571
2023-02-17T07:21:00.819Z,10.8571
2023-02-17T07:22:00.845Z,10.8571
2023-02-17T07:23:00.885Z,10.8571
2023-02-17T07:24:00.926Z,10.8571
2023-02-17T07:25:00.955Z,10.9286
2023-02-17T07:26:00.999Z,10.9286
2023-02-17T07:27:01.085Z,10.9286
2023-02-17T07:28:01.058Z,10.9286
2023-02-17T07:29:01.088Z,10.9286
2023-02-17T07:30:01.239Z,11
2023-02-17T07:31:01.173Z,11
2023-02-17T07:32:01.253Z,11
2023-02-17T07:33:01.221Z,11
2023-02-17T07:34:01.257Z,11
2023-02-17T07:35:01.306Z,11.0714
2023-02-17T07:36:01.316Z,11.0714
2023-02-17T07:37:01.370Z,11.0714
2023-02-17T07:38:01.386Z,11.0714
2023-02-17T07:39:01.435Z,11.1429
2023-02-17T07:40:01.488Z,11.1429
2023-02-17T07:41:01.498Z,11.1429
2023-02-17T07:42:01.553Z,11.1429
2023-02-17T07:43:01.566Z,11.1429
2023-02-17T07:44:01.601Z,11.1429
2023-02-17T07:45:01.656Z,11.1429
2023-02-17T07:46:01.720Z,11.2143
2023-02-17T07:47:01.710Z,11.2143
2023-02-17T07:48:01.724Z,11.2143
2023-02-17T07:49:01.777Z,11.2143
2023-02-17T07:50:01.798Z,11.2143
2023-02-17T07:51:01.836Z,11.2143
2023-02-17T07:52:04.829Z,11.2143
2023-02-17T07:53:01.913Z,11.2857
2023-02-17T07:54:01.940Z,11.2857
2023-02-17T07:55:01.978Z,11.2857
2023-02-17T07:56:02.031Z,11.2857
2023-02-17T07:57:02.044Z,11.2857
2023-02-17T07:58:02.083Z,11.2857
2023-02-17T07:59:02.114Z,11.2857
2023-02-17T08:00:02.145Z,11.2857
2023-02-17T08:01:02.187Z,11.2857
2023-02-17T08:02:02.325Z,11.3571
2023-02-17T08:03:02.252Z,11.3571
2023-02-17T08:04:02.304Z,11.3571
2023-02-17T08:05:02.305Z,11.3571
2023-02-17T08:06:02.362Z,11.3571
2023-02-17T08:07:02.382Z,11.3571
2023-02-17T08:08:02.404Z,11.3571
2023-02-17T08:09:02.445Z,11.3571
2023-02-17T08:10:02.485Z,11.3571
2023-02-17T08:11:02.520Z,11.3571
2023-02-17T08:12:02.596Z,11.3571
2023-02-17T08:13:02.590Z,11.4286
2023-02-17T08:14:02.631Z,11.4286
2023-02-17T08:15:02.654Z,11.4286
2023-02-17T08:16:02.696Z,11.4286
2023-02-17T08:17:02.871Z,11.4286
2023-02-17T08:18:02.773Z,11.4286
2023-02-17T08:19:02.805Z,11.5
2023-02-17T08:20:11.512Z,11.5
2023-02-17T08:21:02.882Z,11.5
2023-02-17T08:22:02.910Z,11.5
2023-02-17T08:23:02.950Z,11.5
2023-02-17T08:24:02.973Z,11.5
2023-02-17T08:25:03.001Z,11.5
2023-02-17T08:26:03.038Z,11.5
2023-02-17T08:27:03.064Z,11.5
2023-02-17T08:28:03.104Z,11.5
2023-02-17T08:29:03.139Z,11.5
2023-02-17T08:30:03.292Z,11.5
2023-02-17T08:31:03.375Z,11.5
2023-02-17T08:32:03.407Z,11.5
2023-02-17T08:33:03.254Z,11.5
2023-02-17T08:34:03.309Z,11.5
2023-02-17T08:35:03.368Z,11.5714
2023-02-17T08:36:03.407Z,11.5714
2023-02-17T08:37:03.403Z,11.5714
2023-02-17T08:38:03.435Z,11.5714
2023-02-17T08:39:03.500Z,11.5714
2023-02-17T08:40:03.503Z,11.5714
2023-02-17T08:41:03.567Z,11.5714
2023-02-17T08:42:03.571Z,11.5714
2023-02-17T08:43:03.825Z,11.5714
2023-02-17T08:44:03.636Z,11.5714
2023-02-17T08:45:03.692Z,11.5714
2023-02-17T08:46:03.882Z,11.5714
2023-02-17T08:47:03.756Z,11.5714
2023-02-17T08:48:03.756Z,11.5714
2023-02-17T08:49:03.775Z,11.5714
2023-02-17T08:50:03.817Z,11.5714
2023-02-17T08:51:03.869Z,11.5714
2023-02-17T08:52:03.947Z,11.5714
2023-02-17T08:53:03.908Z,11.5714
2023-02-17T08:54:03.935Z,11.5714
2023-02-17T08:55:03.973Z,11.5714
2023-02-17T08:56:04.280Z,11.6429
2023-02-17T08:57:04.060Z,11.6429
2023-02-17T08:58:04.125Z,11.5714
2023-02-17T08:59:04.169Z,11.6429
2023-02-17T09:00:06.284Z,11.6429
2023-02-17T09:01:04.234Z,11.6429
2023-02-17T09:02:04.216Z,11.6429
2023-02-17T09:03:04.256Z,11.6429
2023-02-17T09:04:04.337Z,11.6429
2023-02-17T09:05:04.328Z,11.6429
2023-02-17T09:06:04.608Z,11.6429
2023-02-17T09:07:04.412Z,11.6429
2023-02-17T09:08:04.463Z,11.6429
2023-02-17T09:09:04.491Z,11.6429
2023-02-17T09:10:04.513Z,11.5714
2023-02-17T09:11:04.555Z,11.6429
2023-02-17T09:12:04.631Z,11.5714
2023-02-17T09:13:04.650Z,11.5714
2023-02-17T09:14:04.654Z,11.5714
2023-02-17T09:15:04.809Z,11.5714
2023-02-17T09:16:04.966Z,11.6429
2023-02-17T09:17:04.745Z,11.5714
2023-02-17T09:18:04.836Z,11.5714
2023-02-17T09:19:04.841Z,11.5714
2023-02-17T09:20:11.226Z,11.5714
2023-02-17T09:21:04.908Z,11.6429
2023-02-17T09:22:05.000Z,11.6429
2023-02-17T09:23:04.978Z,11.6429
2023-02-17T09:24:05.081Z,11.6429
2023-02-17T09:25:05.051Z,11.6429
2023-02-17T09:26:05.423Z,11.6429
2023-02-17T09:27:05.128Z,11.6429
2023-02-17T09:28:05.185Z,11.6429
2023-02-17T09:29:05.201Z,11.6429
2023-02-17T09:30:05.295Z,11.5714
2023-02-17T09:31:05.383Z,11.5714
2023-02-17T09:32:05.430Z,11.5714
2023-02-17T09:33:05.410Z,11.5714
2023-02-17T09:34:05.366Z,11.5714
2023-02-17T09:35:05.413Z,11.5714
2023-02-17T09:36:05.683Z,11.5714
2023-02-17T09:37:05.489Z,11.6429
2023-02-17T09:38:05.508Z,11.6429
2023-02-17T09:39:05.545Z,11.6429
2023-02-17T09:40:05.582Z,11.6429
2023-02-17T09:41:05.610Z,11.6429
2023-02-17T09:42:05.646Z,11.6429
2023-02-17T09:43:05.699Z,11.6429
2023-02-17T09:44:05.724Z,11.6429
2023-02-17T09:45:05.797Z,11.6429
2023-02-17T09:46:06.250Z,11.6429
2023-02-17T09:47:05.955Z,11.6429
2023-02-17T09:48:05.921Z,11.6429
2023-02-17T09:49:05.937Z,11.6429
2023-02-17T09:50:06.037Z,11.6429
2023-02-17T09:51:06.059Z,11.6429
2023-02-17T09:52:06.011Z,11.6429
2023-02-17T09:53:06.100Z,11.6429
2023-02-17T09:54:06.061Z,11.6429
2023-02-17T09:55:06.174Z,11.6429
2023-02-17T09:56:06.419Z,11.6429
2023-02-17T09:57:06.175Z,11.6429
2023-02-17T09:58:06.206Z,11.6429
2023-02-17T09:59:06.257Z,11.7143
2023-02-17T10:00:06.316Z,11.7143
2023-02-17T10:01:06.369Z,11.7143
2023-02-17T10:02:06.317Z,11.7143
2023-02-17T10:03:06.383Z,11.7143
2023-02-17T10:04:06.468Z,11.7143
2023-02-17T10:05:06.523Z,11.7143
2023-02-17T10:06:06.690Z,11.7857
2023-02-17T10:07:06.489Z,11.7857
2023-02-17T10:08:06.521Z,11.7857
2023-02-17T10:09:06.560Z,11.7857
2023-02-17T10:10:06.616Z,11.7857
2023-02-17T10:11:06.623Z,11.7857
2023-02-17T10:12:06.707Z,11.7857
2023-02-17T10:13:06.723Z,11.7857
2023-02-17T10:14:06.737Z,11.7857
2023-02-17T10:15:06.800Z,11.7857
2023-02-17T10:16:07.037Z,11.7857
2023-02-17T10:17:06.850Z,11.7857
2023-02-17T10:18:06.883Z,11.7857
2023-02-17T10:19:06.901Z,11.7857
2023-02-17T10:20:06.939Z,11.7857
2023-02-17T10:21:06.999Z,11.8571
2023-02-17T10:22:07.032Z,11.8571
2023-02-17T10:23:07.102Z,11.8571
2023-02-17T10:24:07.088Z,11.8571
2023-02-17T10:25:07.141Z,11.9286
2023-02-17T10:26:07.506Z,11.9286
2023-02-17T10:27:07.191Z,11.9286
2023-02-17T10:28:07.312Z,11.9286
2023-02-17T10:29:07.373Z,12
2023-02-17T10:30:07.321Z,12
2023-02-17T10:31:07.414Z,12
2023-02-17T10:32:07.467Z,12.0714
2023-02-17T10:33:07.458Z,12.0714
2023-02-17T10:34:07.414Z,12.0714
2023-02-17T10:35:07.475Z,12.0714
2023-02-17T10:36:07.826Z,12.0714
2023-02-17T10:37:07.514Z,12.1429
2023-02-17T10:38:07.648Z,12.1429
2023-02-17T10:39:07.582Z,12.1429
2023-02-17T10:40:07.616Z,12.1429
2023-02-17T10:41:07.653Z,12.1429
2023-02-17T10:42:07.689Z,12.1429
2023-02-17T10:43:08.007Z,12.1429
2023-02-17T10:44:07.752Z,12.1429
2023-02-17T10:45:07.789Z,12.1429
2023-02-17T10:46:08.225Z,12.1429
2023-02-17T10:47:07.849Z,12.1429
2023-02-17T10:48:07.898Z,12.2143
2023-02-17T10:49:07.920Z,12.2143
2023-02-17T10:50:07.950Z,12.2143
2023-02-17T10:51:07.986Z,12.2857
2023-02-17T10:52:08.023Z,12.2857
2023-02-17T10:53:08.056Z,12.2857
2023-02-17T10:54:08.096Z,12.2857
2023-02-17T10:55:22.045Z,12.2857
2023-02-17T10:56:08.448Z,12.2857
2023-02-17T10:57:08.192Z,12.3571
2023-02-17T10:58:08.228Z,12.3571
2023-02-17T10:59:08.264Z,12.3571
2023-02-17T11:00:08.295Z,12.3571
2023-02-17T11:01:08.377Z,12.3571
2023-02-17T11:02:08.382Z,12.3571
2023-02-17T11:03:08.401Z,12.3571
2023-02-17T11:04:08.543Z,12.4286
2023-02-17T11:05:08.468Z,12.4286
2023-02-17T11:06:08.768Z,12.4286
2023-02-17T11:07:08.531Z,12.5
2023-02-17T11:08:08.565Z,12.5
2023-02-17T11:09:08.619Z,12.5
2023-02-17T11:10:08.642Z,12.5
2023-02-17T11:11:08.680Z,12.5714
2023-02-17T11:12:08.719Z,12.5714
2023-02-17T11:13:08.753Z,12.5714
2023-02-17T11:14:08.780Z,12.6429
2023-02-17T11:15:08.842Z,12.6429
2023-02-17T11:16:09.330Z,12.6429
2023-02-17T11:17:08.893Z,12.6429
2023-02-17T11:18:08.921Z,12.6429
2023-02-17T11:19:08.954Z,12.6429
2023-02-17T11:20:08.990Z,12.6429
2023-02-17T11:21:09.076Z,12.7143
2023-02-17T11:22:09.633Z,12.7143
2023-02-17T11:23:09.108Z,12.7143
2023-02-17T11:24:09.142Z,12.7143
2023-02-17T11:25:09.185Z,12.7143
2023-02-17T11:26:09.208Z,12.7857
2023-02-17T11:27:09.248Z,12.7857
2023-02-17T11:28:09.273Z,12.7857
2023-02-17T11:29:09.317Z,12.7857
2023-02-17T11:30:09.398Z,12.7857
2023-02-17T11:31:09.570Z,12.8571
2023-02-17T11:32:09.488Z,12.8571
2023-02-17T11:33:09.440Z,12.8571
2023-02-17T11:34:09.475Z,12.8571
2023-02-17T11:35:09.513Z,12.9286
2023-02-17T11:36:09.700Z,12.9286
2023-02-17T11:37:09.580Z,12.9286
2023-02-17T11:38:09.609Z,12.9286
2023-02-17T11:39:09.645Z,13
2023-02-17T11:40:09.677Z,13
2023-02-17T11:41:09.701Z,13
2023-02-17T11:42:09.733Z,13
2023-02-17T11:43:09.760Z,13
2023-02-17T11:44:09.801Z,13.0714
2023-02-17T11:45:09.849Z,13.0714
2023-02-17T11:46:10.165Z,13.0714
2023-02-17T11:47:09.926Z,13.0714
2023-02-17T11:48:09.941Z,13.0714
2023-02-17T11:49:09.983Z,13.0714
2023-02-17T11:50:09.998Z,13.0714
2023-02-17T11:51:10.034Z,13.1429
2023-02-17T11:52:10.057Z,13.1429
2023-02-17T11:53:10.116Z,13.1429
2023-02-17T11:54:10.124Z,13.1429
2023-02-17T11:55:10.157Z,13.2143
2023-02-17T11:56:10.196Z,13.2143
2023-02-17T11:57:10.228Z,13.2143
2023-02-17T11:58:10.254Z,13.2143
2023-02-17T11:59:10.279Z,13.2143
2023-02-17T12:00:10.336Z,13.2143
2023-02-17T12:01:10.348Z,13.2143
2023-02-17T12:02:10.377Z,13.2143
2023-02-17T12:03:10.428Z,13.2143
2023-02-17T12:04:10.441Z,13.2143
2023-02-17T12:05:10.545Z,13.2143
2023-02-17T12:06:10.513Z,13.2143
2023-02-17T12:07:10.546Z,13.2857
2023-02-17T12:08:10.576Z,13.2857
2023-02-17T12:09:10.624Z,13.2857
2023-02-17T12:10:10.655Z,13.2857
2023-02-17T12:11:10.687Z,13.2857
2023-02-17T12:12:10.728Z,13.2857
2023-02-17T12:13:10.755Z,13.3571
2023-02-17T12:14:10.816Z,13.3571
2023-02-17T12:15:10.825Z,13.3571